This is the latest recevied weather packets stored in our database for station/object N9ALD. If no packets are shown the sender has not sent any weather packets the latest 10 day(s).
| Time | Temp. | Humidity | Pressure | Rain* | Wind** | Luminosity | Snow |
|---|---|---|---|---|---|---|---|
| 1777045457 | 18.33° C | 83% | 1005.4 hPa | 0 mm | - | 121 W/m² | - |
| 1777045152 | 19.44° C | 78% | 1005.5 hPa | 0 mm | - | 82 W/m² | - |
| 1777044848 | 20° C | 71% | 1005.4 hPa | 0 mm | - | 61 W/m² | - |
| 1777044545 | 22.22° C | 67% | 1005.2 hPa | 0 mm | - | 75 W/m² | - |
| 1777044241 | 22.78° C | 56% | 1005.2 hPa | 0 mm | - | 115 W/m² | - |
| 1777043937 | 23.33° C | 56% | 1005.1 hPa | 0 mm | - | 345 W/m² | - |
| 1777043634 | 23.89° C | 56% | 1005.2 hPa | 0 mm | - | 265 W/m² | - |
| 1777043330 | 23.89° C | 55% | 1005 hPa | 0 mm | - | 508 W/m² | - |
| 1777043025 | 23.33° C | 57% | 1004.8 hPa | 0 mm | - | 591 W/m² | - |
| 1777042721 | 22.78° C | 59% | 1004.9 hPa | 0 mm | - | 571 W/m² | - |
| 1777042417 | 22.22° C | 58% | 1004.9 hPa | 0 mm | - | 602 W/m² | - |
| 1777042113 | 22.22° C | 60% | 1005 hPa | 0 mm | - | 269 W/m² | - |
| 1777041810 | 22.22° C | 61% | 1005.1 hPa | 0 mm | - | 323 W/m² | - |
| 1777041507 | 22.22° C | 60% | 1005.2 hPa | 0 mm | - | 307 W/m² | - |
| 1777041202 | 22.22° C | 60% | 1005 hPa | 0 mm | - | 361 W/m² | - |
| 1777040899 | 21.67° C | 60% | 1004.9 hPa | 0 mm | - | 504 W/m² | - |
| 1777040595 | 21.11° C | 60% | 1004.8 hPa | 0 mm | - | 437 W/m² | - |
| 1777040289 | 21.11° C | 61% | 1005 hPa | 0 mm | - | 311 W/m² | - |
| 1777039984 | 20.56° C | 62% | 1005.3 hPa | 0 mm | - | 339 W/m² | - |
| 1777039680 | 20.56° C | 63% | 1005.1 hPa | 0 mm | - | 220 W/m² | - |
| 1777039375 | 20.56° C | 63% | 1005.1 hPa | 0 mm | - | 169 W/m² | - |
| 1777039070 | 20.56° C | 64% | 1005.2 hPa | 0 mm | - | 97 W/m² | - |
| 1777038766 | 20.56° C | 63% | 1005.2 hPa | 0 mm | - | 78 W/m² | - |
| 1777038462 | 20.56° C | 62% | 1005.3 hPa | 0 mm | - | 80 W/m² | - |
| 1777038156 | 20.56° C | 63% | 1005.2 hPa | 0 mm | - | 91 W/m² | - |
* Rain latest hour (hover to see other rain measurements)
** Current wind speed in m/s (hover to see current wind gust speed)